createdAt,value
2023-02-04T02:20:51.108Z,8.40
2023-02-04T02:23:27.362Z,7.93
2023-02-04T02:25:54.818Z,6.32
2023-02-04T02:28:24.578Z,6.60
2023-02-04T02:30:52.416Z,6.15
2023-02-04T02:33:20.553Z,7.05
2023-02-04T02:40:50.184Z,9.30
2023-02-04T07:56:06.597Z,13.32
2023-02-04T07:58:34.266Z,18.62
2023-02-04T08:01:02.073Z,11.77
2023-02-04T08:03:29.804Z,16.60
2023-02-04T08:05:57.296Z,9.48
2023-02-04T08:08:24.634Z,7.57
2023-02-04T08:10:52.437Z,6.40
2023-02-04T08:13:19.874Z,8.07
2023-02-04T08:15:47.421Z,7.05
2023-02-04T08:18:15.200Z,6.07
2023-02-04T08:20:42.584Z,7.10
2023-02-04T08:23:09.986Z,6.87
2023-02-04T08:25:37.787Z,7.37
2023-02-04T08:28:05.232Z,7.05
2023-02-04T08:30:32.935Z,6.78
2023-02-04T08:33:00.854Z,6.32
2023-02-04T08:35:28.262Z,6.97
2023-02-04T08:37:55.626Z,6.50
2023-02-04T08:40:23.306Z,7.35
2023-02-04T08:42:50.673Z,5.20
2023-02-04T08:45:18.068Z,5.15
2023-02-04T08:47:45.789Z,5.30
2023-02-04T08:50:13.465Z,5.80
2023-02-04T08:52:40.840Z,7.10
2023-02-04T08:55:08.812Z,5.03
2023-02-04T08:57:36.210Z,5.97
2023-02-04T09:00:04.044Z,6.65
2023-02-04T09:02:31.780Z,5.12
2023-02-04T09:04:59.152Z,5.85
2023-02-04T09:07:26.550Z,6.03
2023-02-04T09:09:54.220Z,5.20
2023-02-04T09:12:21.608Z,5.62
2023-02-04T09:14:49.004Z,7.22
2023-02-04T09:17:16.708Z,5.90
2023-02-04T09:19:44.274Z,4.95
2023-02-04T09:22:13.324Z,6.22
2023-02-04T09:24:41.306Z,5.72
2023-02-04T09:27:08.718Z,7.40
2023-02-04T09:29:36.178Z,6.93
2023-02-04T09:32:03.948Z,6.50
2023-02-04T09:34:31.389Z,6.87
2023-02-04T09:36:58.748Z,4.68
2023-02-04T09:39:26.396Z,6.00
2023-02-04T09:41:56.601Z,4.43
2023-02-04T09:44:25.945Z,6.00
2023-02-04T09:46:56.104Z,7.47
2023-02-04T09:49:23.762Z,4.05
2023-02-04T09:51:51.448Z,3.87
2023-02-04T09:54:22.234Z,3.72
2023-02-04T09:56:50.625Z,4.82
2023-02-04T09:59:20.937Z,5.53
2023-02-04T10:01:55.623Z,2.03
2023-02-04T10:04:23.685Z,3.20
2023-02-04T10:06:51.128Z,2.62
2023-02-04T10:09:18.762Z,2.25
2023-02-04T10:11:48.040Z,3.00
2023-02-04T10:14:18.451Z,4.03
2023-02-04T10:17:00.165Z,3.42
2023-02-04T10:19:29.260Z,3.47
2023-02-04T10:21:57.772Z,3.53
2023-02-04T10:24:30.616Z,2.53
2023-02-04T10:27:08.948Z,3.20
2023-02-04T10:29:36.560Z,3.75
2023-02-04T10:32:04.356Z,3.45
2023-02-04T10:34:39.689Z,3.45
2023-02-04T10:37:22.221Z,3.62
2023-02-04T10:39:49.974Z,3.40
2023-02-04T10:42:23.428Z,4.40
2023-02-04T10:44:50.926Z,3.10
2023-02-04T10:47:20.964Z,3.50
2023-02-04T10:49:59.209Z,3.55
2023-02-04T10:52:35.714Z,4.80
2023-02-04T10:55:09.093Z,3.85
2023-02-04T10:57:39.168Z,3.90
2023-02-04T11:00:17.462Z,4.05
2023-02-04T11:02:49.631Z,2.80
2023-02-04T11:05:22.540Z,2.60
2023-02-04T11:07:50.941Z,3.70
2023-02-04T11:10:23.630Z,2.62
2023-02-04T11:12:54.221Z,2.87
2023-02-04T11:16:11.137Z,3.25
2023-02-04T11:18:58.464Z,3.60
2023-02-04T11:21:28.641Z,3.00
2023-02-04T11:24:24.018Z,2.60
2023-02-04T11:26:54.089Z,4.00
2023-02-04T11:29:29.800Z,3.13
2023-02-04T11:32:00.873Z,2.42
2023-02-04T11:34:30.552Z,2.95
2023-02-04T11:37:00.976Z,3.55
2023-02-04T11:39:33.352Z,2.35
2023-02-04T11:42:01.194Z,4.47
2023-02-04T11:44:28.880Z,3.90
2023-02-04T19:14:24.805Z,5.00
2023-02-04T19:16:54.776Z,13.93
2023-02-04T19:19:48.609Z,10.98
2023-02-04T19:22:38.778Z,8.02
2023-02-04T19:25:29.734Z,9.02
2023-02-04T19:45:26.604Z,6.75
2023-02-04T19:47:55.756Z,7.45
2023-02-04T19:50:34.791Z,8.68
2023-02-04T19:53:11.162Z,6.50
2023-02-04T19:55:45.057Z,6.03
2023-02-04T19:58:23.388Z,6.07
2023-02-04T20:01:04.493Z,6.57
2023-02-04T20:03:43.899Z,5.93
2023-02-04T20:06:44.335Z,5.85
2023-02-04T20:09:34.009Z,7.47
2023-02-04T20:12:07.202Z,11.18
2023-02-04T20:14:51.975Z,9.38
2023-02-04T20:17:22.328Z,8.20
2023-02-04T20:19:51.416Z,17.30
2023-02-04T20:22:19.198Z,15.82
2023-02-04T20:25:27.596Z,10.40
2023-02-04T20:28:01.075Z,23.38
2023-02-04T20:30:31.037Z,16.85
2023-02-04T20:33:18.605Z,10.80
2023-02-04T20:35:52.363Z,19.58
2023-02-04T20:38:20.585Z,12.65
2023-02-04T20:40:49.309Z,13.05
2023-02-04T20:43:20.296Z,18.48
2023-02-04T21:06:55.866Z,11.63
